sensor_id;sensor_type;location;lat;lon;timestamp;P1;durP1;ratioP1;P2;durP2;ratioP2
30151;SDS011;16963;26.018;-80.216;2022-08-30T00:02:36;4.47;;;1.40;;
30151;SDS011;16963;26.018;-80.216;2022-08-30T00:05:05;2.58;;;1.00;;
30151;SDS011;16963;26.018;-80.216;2022-08-30T00:07:51;3.70;;;1.15;;
30151;SDS011;16963;26.018;-80.216;2022-08-30T00:10:19;2.28;;;1.10;;
30151;SDS011;16963;26.018;-80.216;2022-08-30T00:12:47;4.30;;;1.00;;
30151;SDS011;16963;26.018;-80.216;2022-08-30T00:15:20;2.58;;;0.90;;
30151;SDS011;16963;26.018;-80.216;2022-08-30T00:17:49;2.28;;;1.00;;
30151;SDS011;16963;26.018;-80.216;2022-08-30T00:20:18;4.63;;;1.17;;
30151;SDS011;16963;26.018;-80.216;2022-08-30T00:22:53;3.92;;;1.33;;
30151;SDS011;16963;26.018;-80.216;2022-08-30T00:25:21;1.98;;;1.05;;
30151;SDS011;16963;26.018;-80.216;2022-08-30T00:27:49;3.60;;;1.00;;
30151;SDS011;16963;26.018;-80.216;2022-08-30T00:32:49;3.28;;;1.10;;
30151;SDS011;16963;26.018;-80.216;2022-08-30T00:35:17;3.58;;;1.20;;
30151;SDS011;16963;26.018;-80.216;2022-08-30T00:37:47;2.83;;;1.20;;
30151;SDS011;16963;26.018;-80.216;2022-08-30T00:40:17;2.40;;;1.13;;
30151;SDS011;16963;26.018;-80.216;2022-08-30T00:42:56;2.55;;;1.00;;
30151;SDS011;16963;26.018;-80.216;2022-08-30T00:45:35;3.78;;;1.38;;
30151;SDS011;16963;26.018;-80.216;2022-08-30T00:48:05;3.75;;;1.20;;
30151;SDS011;16963;26.018;-80.216;2022-08-30T00:50:39;3.90;;;1.00;;
30151;SDS011;16963;26.018;-80.216;2022-08-30T00:53:20;2.00;;;1.20;;
30151;SDS011;16963;26.018;-80.216;2022-08-30T00:55:59;2.95;;;1.25;;
30151;SDS011;16963;26.018;-80.216;2022-08-30T00:58:30;2.47;;;0.93;;
30151;SDS011;16963;26.018;-80.216;2022-08-30T01:01:05;2.03;;;1.10;;
30151;SDS011;16963;26.018;-80.216;2022-08-30T01:03:39;3.90;;;1.30;;
30151;SDS011;16963;26.018;-80.216;2022-08-30T01:06:09;4.80;;;1.27;;
30151;SDS011;16963;26.018;-80.216;2022-08-30T01:08:41;3.83;;;1.25;;
30151;SDS011;16963;26.018;-80.216;2022-08-30T01:11:10;2.95;;;1.13;;
30151;SDS011;16963;26.018;-80.216;2022-08-30T01:13:44;3.85;;;1.30;;
30151;SDS011;16963;26.018;-80.216;2022-08-30T01:19:01;1.38;;;0.95;;
30151;SDS011;16963;26.018;-80.216;2022-08-30T01:21:38;2.85;;;1.15;;
30151;SDS011;16963;26.018;-80.216;2022-08-30T01:24:12;4.32;;;1.38;;
30151;SDS011;16963;26.018;-80.216;2022-08-30T01:26:40;1.63;;;1.10;;
30151;SDS011;16963;26.018;-80.216;2022-08-30T01:29:12;3.78;;;1.10;;
30151;SDS011;16963;26.018;-80.216;2022-08-30T01:31:47;3.72;;;0.98;;
30151;SDS011;16963;26.018;-80.216;2022-08-30T01:34:17;1.63;;;1.10;;
30151;SDS011;16963;26.018;-80.216;2022-08-30T01:36:47;3.10;;;1.08;;
30151;SDS011;16963;26.018;-80.216;2022-08-30T01:39:35;2.47;;;1.23;;
30151;SDS011;16963;26.018;-80.216;2022-08-30T01:42:02;2.67;;;1.40;;
30151;SDS011;16963;26.018;-80.216;2022-08-30T01:44:41;3.17;;;1.10;;
30151;SDS011;16963;26.018;-80.216;2022-08-30T01:47:09;2.75;;;1.08;;
30151;SDS011;16963;26.018;-80.216;2022-08-30T01:49:38;3.80;;;1.20;;
30151;SDS011;16963;26.018;-80.216;2022-08-30T01:52:09;2.88;;;1.00;;
30151;SDS011;16963;26.018;-80.216;2022-08-30T01:54:40;1.83;;;1.20;;
30151;SDS011;16963;26.018;-80.216;2022-08-30T01:57:10;2.05;;;1.17;;
30151;SDS011;16963;26.018;-80.216;2022-08-30T01:59:41;2.88;;;0.90;;
30151;SDS011;16963;26.018;-80.216;2022-08-30T02:02:16;3.05;;;1.35;;
30151;SDS011;16963;26.018;-80.216;2022-08-30T02:05:01;3.35;;;1.10;;
30151;SDS011;16963;26.018;-80.216;2022-08-30T02:07:27;3.33;;;1.17;;
30151;SDS011;16963;26.018;-80.216;2022-08-30T02:10:09;3.35;;;1.00;;
30151;SDS011;16963;26.018;-80.216;2022-08-30T02:12:39;3.10;;;1.10;;
30151;SDS011;16963;26.018;-80.216;2022-08-30T02:15:07;1.97;;;1.07;;
30151;SDS011;16963;26.018;-80.216;2022-08-30T02:17:40;2.50;;;1.20;;
30151;SDS011;16963;26.018;-80.216;2022-08-30T02:20:09;2.25;;;1.10;;
30151;SDS011;16963;26.018;-80.216;2022-08-30T02:22:41;3.30;;;1.00;;
30151;SDS011;16963;26.018;-80.216;2022-08-30T02:25:15;1.77;;;1.08;;
30151;SDS011;16963;26.018;-80.216;2022-08-30T02:27:47;4.53;;;1.23;;
30151;SDS011;16963;26.018;-80.216;2022-08-30T02:30:17;3.42;;;1.10;;
30151;SDS011;16963;26.018;-80.216;2022-08-30T02:32:49;3.85;;;1.10;;
30151;SDS011;16963;26.018;-80.216;2022-08-30T02:35:23;4.82;;;1.20;;
30151;SDS011;16963;26.018;-80.216;2022-08-30T02:37:51;2.15;;;1.00;;
30151;SDS011;16963;26.018;-80.216;2022-08-30T02:40:19;2.40;;;1.08;;
30151;SDS011;16963;26.018;-80.216;2022-08-30T02:42:49;2.95;;;1.10;;
30151;SDS011;16963;26.018;-80.216;2022-08-30T02:45:17;1.90;;;0.95;;
30151;SDS011;16963;26.018;-80.216;2022-08-30T02:47:46;1.73;;;0.97;;
30151;SDS011;16963;26.018;-80.216;2022-08-30T02:50:15;2.75;;;1.25;;
30151;SDS011;16963;26.018;-80.216;2022-08-30T02:55:24;2.33;;;1.20;;
30151;SDS011;16963;26.018;-80.216;2022-08-30T02:57:51;2.67;;;0.90;;
30151;SDS011;16963;26.018;-80.216;2022-08-30T03:00:20;1.63;;;1.10;;
30151;SDS011;16963;26.018;-80.216;2022-08-30T03:02:47;3.58;;;1.10;;
30151;SDS011;16963;26.018;-80.216;2022-08-30T03:05:20;3.47;;;1.20;;
30151;SDS011;16963;26.018;-80.216;2022-08-30T03:07:47;2.53;;;1.00;;
30151;SDS011;16963;26.018;-80.216;2022-08-30T03:10:17;2.17;;;0.93;;
30151;SDS011;16963;26.018;-80.216;2022-08-30T03:12:46;2.60;;;1.30;;
30151;SDS011;16963;26.018;-80.216;2022-08-30T03:17:07;3.95;;;1.00;;
30151;SDS011;16963;26.018;-80.216;2022-08-30T03:19:41;3.75;;;1.10;;
30151;SDS011;16963;26.018;-80.216;2022-08-30T03:22:10;3.03;;;1.52;;
30151;SDS011;16963;26.018;-80.216;2022-08-30T03:24:39;3.33;;;1.30;;
30151;SDS011;16963;26.018;-80.216;2022-08-30T03:27:07;2.78;;;1.20;;
30151;SDS011;16963;26.018;-80.216;2022-08-30T03:29:37;3.85;;;1.13;;
30151;SDS011;16963;26.018;-80.216;2022-08-30T03:32:06;1.40;;;1.00;;
30151;SDS011;16963;26.018;-80.216;2022-08-30T03:34:35;3.33;;;1.20;;
30151;SDS011;16963;26.018;-80.216;2022-08-30T03:37:20;6.20;;;1.50;;
30151;SDS011;16963;26.018;-80.216;2022-08-30T03:39:54;4.03;;;1.50;;
30151;SDS011;16963;26.018;-80.216;2022-08-30T03:42:22;4.30;;;1.42;;
30151;SDS011;16963;26.018;-80.216;2022-08-30T03:44:50;4.22;;;1.50;;
30151;SDS011;16963;26.018;-80.216;2022-08-30T03:47:19;3.03;;;1.10;;
30151;SDS011;16963;26.018;-80.216;2022-08-30T03:49:47;3.08;;;1.15;;
30151;SDS011;16963;26.018;-80.216;2022-08-30T03:52:16;4.88;;;1.40;;
30151;SDS011;16963;26.018;-80.216;2022-08-30T03:54:45;5.18;;;1.40;;
30151;SDS011;16963;26.018;-80.216;2022-08-30T03:57:15;5.93;;;1.60;;
30151;SDS011;16963;26.018;-80.216;2022-08-30T04:01:59;4.57;;;1.70;;
30151;SDS011;16963;26.018;-80.216;2022-08-30T04:04:27;4.68;;;1.65;;
30151;SDS011;16963;26.018;-80.216;2022-08-30T04:06:56;5.88;;;1.52;;
30151;SDS011;16963;26.018;-80.216;2022-08-30T04:09:25;5.03;;;1.45;;
30151;SDS011;16963;26.018;-80.216;2022-08-30T04:11:52;4.32;;;1.40;;
30151;SDS011;16963;26.018;-80.216;2022-08-30T04:14:20;6.07;;;1.63;;
30151;SDS011;16963;26.018;-80.216;2022-08-30T04:16:50;4.50;;;1.40;;
30151;SDS011;16963;26.018;-80.216;2022-08-30T04:19:17;5.40;;;1.40;;
30151;SDS011;16963;26.018;-80.216;2022-08-30T04:24:22;4.88;;;1.73;;
30151;SDS011;16963;26.018;-80.216;2022-08-30T04:26:50;7.72;;;1.85;;
30151;SDS011;16963;26.018;-80.216;2022-08-30T04:29:19;4.30;;;1.70;;
30151;SDS011;16963;26.018;-80.216;2022-08-30T04:31:46;7.20;;;2.28;;
30151;SDS011;16963;26.018;-80.216;2022-08-30T04:34:15;5.72;;;1.88;;
30151;SDS011;16963;26.018;-80.216;2022-08-30T04:36:44;6.32;;;1.75;;
30151;SDS011;16963;26.018;-80.216;2022-08-30T04:39:16;6.45;;;2.00;;
30151;SDS011;16963;26.018;-80.216;2022-08-30T04:41:45;6.63;;;2.17;;
30151;SDS011;16963;26.018;-80.216;2022-08-30T04:44:32;8.43;;;1.98;;
30151;SDS011;16963;26.018;-80.216;2022-08-30T04:47:00;4.65;;;1.95;;
30151;SDS011;16963;26.018;-80.216;2022-08-30T04:49:27;5.25;;;1.80;;
30151;SDS011;16963;26.018;-80.216;2022-08-30T04:51:59;7.28;;;1.65;;
30151;SDS011;16963;26.018;-80.216;2022-08-30T04:54:27;9.35;;;1.92;;
30151;SDS011;16963;26.018;-80.216;2022-08-30T04:56:56;10.63;;;2.25;;
30151;SDS011;16963;26.018;-80.216;2022-08-30T04:59:25;7.40;;;1.70;;
30151;SDS011;16963;26.018;-80.216;2022-08-30T05:01:55;5.25;;;1.75;;
30151;SDS011;16963;26.018;-80.216;2022-08-30T05:04:22;5.38;;;1.65;;
30151;SDS011;16963;26.018;-80.216;2022-08-30T05:06:59;6.88;;;1.70;;
30151;SDS011;16963;26.018;-80.216;2022-08-30T05:09:27;6.13;;;2.05;;
30151;SDS011;16963;26.018;-80.216;2022-08-30T05:11:56;7.60;;;2.30;;
30151;SDS011;16963;26.018;-80.216;2022-08-30T05:14:26;6.53;;;1.90;;
30151;SDS011;16963;26.018;-80.216;2022-08-30T05:16:55;8.55;;;2.45;;
30151;SDS011;16963;26.018;-80.216;2022-08-30T05:19:22;4.75;;;1.70;;
30151;SDS011;16963;26.018;-80.216;2022-08-30T05:21:50;5.63;;;1.75;;
30151;SDS011;16963;26.018;-80.216;2022-08-30T05:24:17;7.43;;;2.03;;
30151;SDS011;16963;26.018;-80.216;2022-08-30T05:27:10;8.60;;;1.98;;
30151;SDS011;16963;26.018;-80.216;2022-08-30T05:29:37;11.32;;;2.15;;
30151;SDS011;16963;26.018;-80.216;2022-08-30T05:32:09;7.72;;;2.10;;
30151;SDS011;16963;26.018;-80.216;2022-08-30T05:34:37;8.52;;;1.75;;
30151;SDS011;16963;26.018;-80.216;2022-08-30T05:37:06;7.00;;;1.77;;
30151;SDS011;16963;26.018;-80.216;2022-08-30T05:39:35;7.55;;;2.20;;
30151;SDS011;16963;26.018;-80.216;2022-08-30T05:42:17;7.65;;;2.20;;
30151;SDS011;16963;26.018;-80.216;2022-08-30T05:45:06;9.38;;;2.22;;
30151;SDS011;16963;26.018;-80.216;2022-08-30T05:47:37;10.70;;;1.98;;
30151;SDS011;16963;26.018;-80.216;2022-08-30T05:50:07;4.93;;;1.92;;
30151;SDS011;16963;26.018;-80.216;2022-08-30T05:52:37;6.53;;;1.83;;
30151;SDS011;16963;26.018;-80.216;2022-08-30T05:55:08;11.10;;;2.08;;
30151;SDS011;16963;26.018;-80.216;2022-08-30T05:57:40;9.50;;;2.15;;
30151;SDS011;16963;26.018;-80.216;2022-08-30T06:00:08;7.15;;;2.10;;
30151;SDS011;16963;26.018;-80.216;2022-08-30T06:02:40;7.28;;;1.73;;
30151;SDS011;16963;26.018;-80.216;2022-08-30T06:06:20;8.10;;;2.30;;
30151;SDS011;16963;26.018;-80.216;2022-08-30T06:08:49;5.47;;;1.77;;
30151;SDS011;16963;26.018;-80.216;2022-08-30T06:11:18;9.05;;;1.83;;
30151;SDS011;16963;26.018;-80.216;2022-08-30T06:13:50;8.23;;;1.98;;
30151;SDS011;16963;26.018;-80.216;2022-08-30T06:16:21;7.10;;;2.22;;
30151;SDS011;16963;26.018;-80.216;2022-08-30T06:18:52;8.80;;;2.05;;
30151;SDS011;16963;26.018;-80.216;2022-08-30T06:21:24;7.40;;;1.73;;
30151;SDS011;16963;26.018;-80.216;2022-08-30T06:23:57;9.77;;;2.00;;
30151;SDS011;16963;26.018;-80.216;2022-08-30T06:26:26;8.40;;;1.95;;
30151;SDS011;16963;26.018;-80.216;2022-08-30T06:29:07;8.88;;;1.95;;
30151;SDS011;16963;26.018;-80.216;2022-08-30T06:31:37;10.68;;;2.17;;
30151;SDS011;16963;26.018;-80.216;2022-08-30T06:34:06;6.53;;;1.85;;
30151;SDS011;16963;26.018;-80.216;2022-08-30T06:36:35;8.70;;;2.00;;
30151;SDS011;16963;26.018;-80.216;2022-08-30T06:39:06;9.15;;;1.92;;
30151;SDS011;16963;26.018;-80.216;2022-08-30T06:41:37;6.70;;;2.05;;
30151;SDS011;16963;26.018;-80.216;2022-08-30T06:44:22;7.80;;;2.13;;
30151;SDS011;16963;26.018;-80.216;2022-08-30T06:46:50;8.45;;;2.15;;
30151;SDS011;16963;26.018;-80.216;2022-08-30T06:49:18;7.57;;;1.95;;
30151;SDS011;16963;26.018;-80.216;2022-08-30T06:51:46;8.25;;;1.83;;
30151;SDS011;16963;26.018;-80.216;2022-08-30T06:54:19;8.23;;;2.08;;
30151;SDS011;16963;26.018;-80.216;2022-08-30T06:56:47;7.90;;;2.65;;
30151;SDS011;16963;26.018;-80.216;2022-08-30T06:59:25;9.25;;;1.90;;
30151;SDS011;16963;26.018;-80.216;2022-08-30T07:01:53;12.20;;;2.30;;
30151;SDS011;16963;26.018;-80.216;2022-08-30T07:04:22;10.80;;;2.63;;
30151;SDS011;16963;26.018;-80.216;2022-08-30T07:06:50;7.72;;;2.03;;
30151;SDS011;16963;26.018;-80.216;2022-08-30T07:09:23;9.77;;;2.47;;
30151;SDS011;16963;26.018;-80.216;2022-08-30T07:11:50;11.98;;;3.17;;
30151;SDS011;16963;26.018;-80.216;2022-08-30T07:16:20;8.55;;;3.00;;
30151;SDS011;16963;26.018;-80.216;2022-08-30T07:18:50;15.17;;;2.77;;
30151;SDS011;16963;26.018;-80.216;2022-08-30T07:21:25;11.00;;;2.83;;
30151;SDS011;16963;26.018;-80.216;2022-08-30T07:23:54;12.30;;;2.80;;
30151;SDS011;16963;26.018;-80.216;2022-08-30T07:26:24;12.35;;;3.42;;
30151;SDS011;16963;26.018;-80.216;2022-08-30T07:28:56;14.98;;;3.10;;
30151;SDS011;16963;26.018;-80.216;2022-08-30T07:31:23;10.45;;;3.20;;
30151;SDS011;16963;26.018;-80.216;2022-08-30T07:33:51;9.57;;;2.28;;
30151;SDS011;16963;26.018;-80.216;2022-08-30T07:36:30;13.88;;;3.50;;
30151;SDS011;16963;26.018;-80.216;2022-08-30T07:39:00;14.95;;;3.03;;
30151;SDS011;16963;26.018;-80.216;2022-08-30T07:41:29;12.93;;;2.60;;
30151;SDS011;16963;26.018;-80.216;2022-08-30T07:44:06;12.43;;;3.03;;
30151;SDS011;16963;26.018;-80.216;2022-08-30T07:46:37;14.05;;;3.08;;
30151;SDS011;16963;26.018;-80.216;2022-08-30T07:49:07;13.30;;;3.15;;
30151;SDS011;16963;26.018;-80.216;2022-08-30T07:51:40;11.35;;;3.40;;
30151;SDS011;16963;26.018;-80.216;2022-08-30T07:54:08;16.50;;;3.47;;
30151;SDS011;16963;26.018;-80.216;2022-08-30T07:58:26;13.07;;;3.13;;
30151;SDS011;16963;26.018;-80.216;2022-08-30T08:00:56;14.25;;;3.00;;
30151;SDS011;16963;26.018;-80.216;2022-08-30T08:03:30;10.88;;;3.08;;
30151;SDS011;16963;26.018;-80.216;2022-08-30T08:05:59;11.48;;;3.17;;
30151;SDS011;16963;26.018;-80.216;2022-08-30T08:08:30;13.57;;;3.15;;
30151;SDS011;16963;26.018;-80.216;2022-08-30T08:11:03;14.73;;;2.90;;
30151;SDS011;16963;26.018;-80.216;2022-08-30T08:13:33;9.50;;;3.28;;
30151;SDS011;16963;26.018;-80.216;2022-08-30T08:16:21;14.57;;;3.00;;
30151;SDS011;16963;26.018;-80.216;2022-08-30T08:20:20;13.38;;;2.75;;
30151;SDS011;16963;26.018;-80.216;2022-08-30T08:22:49;17.77;;;3.28;;
30151;SDS011;16963;26.018;-80.216;2022-08-30T08:25:17;14.77;;;3.08;;
30151;SDS011;16963;26.018;-80.216;2022-08-30T08:27:48;14.32;;;2.67;;
30151;SDS011;16963;26.018;-80.216;2022-08-30T08:32:47;11.57;;;2.92;;
30151;SDS011;16963;26.018;-80.216;2022-08-30T08:37:50;12.63;;;3.47;;
30151;SDS011;16963;26.018;-80.216;2022-08-30T08:40:20;10.00;;;3.28;;
30151;SDS011;16963;26.018;-80.216;2022-08-30T08:42:50;15.48;;;3.40;;
30151;SDS011;16963;26.018;-80.216;2022-08-30T08:45:57;13.75;;;3.03;;
30151;SDS011;16963;26.018;-80.216;2022-08-30T08:48:47;12.73;;;3.50;;
30151;SDS011;16963;26.018;-80.216;2022-08-30T08:51:29;11.23;;;3.42;;
30151;SDS011;16963;26.018;-80.216;2022-08-30T08:57:12;15.38;;;3.72;;
30151;SDS011;16963;26.018;-80.216;2022-08-30T08:59:43;11.82;;;3.45;;
30151;SDS011;16963;26.018;-80.216;2022-08-30T09:02:34;15.38;;;3.38;;
30151;SDS011;16963;26.018;-80.216;2022-08-30T09:05:19;12.48;;;3.15;;
30151;SDS011;16963;26.018;-80.216;2022-08-30T09:08:01;12.48;;;4.18;;
30151;SDS011;16963;26.018;-80.216;2022-08-30T09:10:42;12.93;;;3.17;;
30151;SDS011;16963;26.018;-80.216;2022-08-30T09:13:18;15.63;;;3.95;;
30151;SDS011;16963;26.018;-80.216;2022-08-30T09:15:51;13.50;;;3.22;;
30151;SDS011;16963;26.018;-80.216;2022-08-30T09:21:22;14.43;;;3.40;;
30151;SDS011;16963;26.018;-80.216;2022-08-30T09:23:55;20.33;;;4.55;;
30151;SDS011;16963;26.018;-80.216;2022-08-30T09:26:33;14.77;;;4.22;;
30151;SDS011;16963;26.018;-80.216;2022-08-30T09:29:02;15.95;;;3.80;;
30151;SDS011;16963;26.018;-80.216;2022-08-30T09:33:21;12.70;;;3.00;;
30151;SDS011;16963;26.018;-80.216;2022-08-30T09:35:50;13.43;;;3.17;;
30151;SDS011;16963;26.018;-80.216;2022-08-30T09:38:32;13.95;;;3.38;;
30151;SDS011;16963;26.018;-80.216;2022-08-30T09:44:02;10.10;;;2.83;;
30151;SDS011;16963;26.018;-80.216;2022-08-30T09:46:45;17.27;;;3.38;;
30151;SDS011;16963;26.018;-80.216;2022-08-30T09:49:31;13.25;;;3.40;;
30151;SDS011;16963;26.018;-80.216;2022-08-30T09:52:19;13.73;;;3.10;;
30151;SDS011;16963;26.018;-80.216;2022-08-30T09:58:07;16.27;;;3.22;;
30151;SDS011;16963;26.018;-80.216;2022-08-30T10:00:54;16.00;;;3.25;;
30151;SDS011;16963;26.018;-80.216;2022-08-30T10:06:26;15.98;;;3.70;;
30151;SDS011;16963;26.018;-80.216;2022-08-30T10:14:56;17.27;;;3.28;;
30151;SDS011;16963;26.018;-80.216;2022-08-30T10:25:56;12.93;;;2.92;;
30151;SDS011;16963;26.018;-80.216;2022-08-30T10:28:54;14.15;;;2.95;;
30151;SDS011;16963;26.018;-80.216;2022-08-30T10:34:24;10.85;;;3.00;;
30151;SDS011;16963;26.018;-80.216;2022-08-30T10:37:06;11.25;;;2.88;;
30151;SDS011;16963;26.018;-80.216;2022-08-30T10:39:46;12.40;;;2.50;;
30151;SDS011;16963;26.018;-80.216;2022-08-30T10:42:23;12.90;;;2.70;;
30151;SDS011;16963;26.018;-80.216;2022-08-30T10:48:23;14.43;;;3.10;;
30151;SDS011;16963;26.018;-80.216;2022-08-30T10:50:53;11.43;;;2.90;;
30151;SDS011;16963;26.018;-80.216;2022-08-30T10:56:24;12.63;;;3.22;;
30151;SDS011;16963;26.018;-80.216;2022-08-30T10:58:57;10.88;;;3.08;;
30151;SDS011;16963;26.018;-80.216;2022-08-30T11:07:01;11.80;;;2.72;;
30151;SDS011;16963;26.018;-80.216;2022-08-30T11:15:21;13.52;;;3.28;;
30151;SDS011;16963;26.018;-80.216;2022-08-30T11:20:46;13.93;;;3.03;;
30151;SDS011;16963;26.018;-80.216;2022-08-30T11:33:52;10.65;;;2.92;;
30151;SDS011;16963;26.018;-80.216;2022-08-30T11:37:05;14.30;;;3.30;;
30151;SDS011;16963;26.018;-80.216;2022-08-30T11:48:02;17.55;;;3.92;;
30151;SDS011;16963;26.018;-80.216;2022-08-30T11:50:59;13.93;;;3.22;;
30151;SDS011;16963;26.018;-80.216;2022-08-30T11:53:41;12.93;;;3.38;;
30151;SDS011;16963;26.018;-80.216;2022-08-30T11:56:14;12.73;;;4.20;;
30151;SDS011;16963;26.018;-80.216;2022-08-30T12:04:26;11.60;;;3.10;;
30151;SDS011;16963;26.018;-80.216;2022-08-30T12:07:04;15.85;;;4.05;;
30151;SDS011;16963;26.018;-80.216;2022-08-30T12:12:05;12.57;;;3.40;;
30151;SDS011;16963;26.018;-80.216;2022-08-30T12:14:43;13.38;;;3.67;;
30151;SDS011;16963;26.018;-80.216;2022-08-30T12:17:22;13.25;;;3.10;;
30151;SDS011;16963;26.018;-80.216;2022-08-30T12:22:48;13.82;;;3.45;;
30151;SDS011;16963;26.018;-80.216;2022-08-30T12:27:23;11.57;;;3.33;;
30151;SDS011;16963;26.018;-80.216;2022-08-30T12:30:02;9.90;;;3.10;;
30151;SDS011;16963;26.018;-80.216;2022-08-30T12:32:32;18.67;;;4.00;;
30151;SDS011;16963;26.018;-80.216;2022-08-30T12:35:21;16.70;;;4.20;;
30151;SDS011;16963;26.018;-80.216;2022-08-30T12:38:03;16.58;;;3.08;;
30151;SDS011;16963;26.018;-80.216;2022-08-30T12:40:47;17.08;;;4.13;;
30151;SDS011;16963;26.018;-80.216;2022-08-30T12:43:22;15.90;;;2.78;;
30151;SDS011;16963;26.018;-80.216;2022-08-30T12:46:07;19.05;;;3.05;;
30151;SDS011;16963;26.018;-80.216;2022-08-30T12:50:35;18.48;;;3.50;;
30151;SDS011;16963;26.018;-80.216;2022-08-30T12:53:11;12.18;;;3.10;;
30151;SDS011;16963;26.018;-80.216;2022-08-30T13:01:25;13.43;;;2.73;;
30151;SDS011;16963;26.018;-80.216;2022-08-30T13:04:11;15.05;;;3.08;;
30151;SDS011;16963;26.018;-80.216;2022-08-30T13:09:37;16.52;;;3.60;;
30151;SDS011;16963;26.018;-80.216;2022-08-30T13:14:45;13.68;;;3.25;;
30151;SDS011;16963;26.018;-80.216;2022-08-30T13:17:22;10.80;;;2.50;;
30151;SDS011;16963;26.018;-80.216;2022-08-30T13:20:00;16.73;;;2.72;;
30151;SDS011;16963;26.018;-80.216;2022-08-30T13:25:32;16.67;;;2.97;;
30151;SDS011;16963;26.018;-80.216;2022-08-30T13:30:31;11.43;;;2.30;;
30151;SDS011;16963;26.018;-80.216;2022-08-30T13:32:58;12.07;;;2.70;;
30151;SDS011;16963;26.018;-80.216;2022-08-30T13:35:42;15.90;;;2.80;;
30151;SDS011;16963;26.018;-80.216;2022-08-30T13:40:55;13.38;;;2.65;;
30151;SDS011;16963;26.018;-80.216;2022-08-30T13:43:22;14.55;;;2.90;;
30151;SDS011;16963;26.018;-80.216;2022-08-30T13:45:51;15.82;;;2.72;;
30151;SDS011;16963;26.018;-80.216;2022-08-30T13:48:18;15.50;;;3.42;;
30151;SDS011;16963;26.018;-80.216;2022-08-30T13:50:53;12.70;;;2.58;;
30151;SDS011;16963;26.018;-80.216;2022-08-30T13:53:22;10.80;;;2.72;;
30151;SDS011;16963;26.018;-80.216;2022-08-30T13:56:11;14.60;;;3.40;;
30151;SDS011;16963;26.018;-80.216;2022-08-30T13:58:40;15.40;;;3.33;;
30151;SDS011;16963;26.018;-80.216;2022-08-30T14:01:21;10.70;;;2.40;;
30151;SDS011;16963;26.018;-80.216;2022-08-30T14:03:51;8.35;;;2.38;;
30151;SDS011;16963;26.018;-80.216;2022-08-30T14:06:39;13.50;;;3.38;;
30151;SDS011;16963;26.018;-80.216;2022-08-30T14:09:28;10.30;;;2.53;;
30151;SDS011;16963;26.018;-80.216;2022-08-30T14:11:57;13.30;;;2.70;;
30151;SDS011;16963;26.018;-80.216;2022-08-30T14:14:31;10.80;;;2.30;;
30151;SDS011;16963;26.018;-80.216;2022-08-30T14:17:09;12.27;;;2.97;;
30151;SDS011;16963;26.018;-80.216;2022-08-30T14:19:43;10.68;;;2.45;;
30151;SDS011;16963;26.018;-80.216;2022-08-30T14:22:11;10.13;;;2.03;;
30151;SDS011;16963;26.018;-80.216;2022-08-30T14:24:51;13.70;;;3.40;;
30151;SDS011;16963;26.018;-80.216;2022-08-30T14:27:21;13.77;;;2.67;;
30151;SDS011;16963;26.018;-80.216;2022-08-30T14:29:52;14.05;;;2.83;;
30151;SDS011;16963;26.018;-80.216;2022-08-30T14:32:21;15.40;;;3.45;;
30151;SDS011;16963;26.018;-80.216;2022-08-30T14:34:52;10.85;;;3.10;;
30151;SDS011;16963;26.018;-80.216;2022-08-30T14:37:21;12.40;;;2.95;;
30151;SDS011;16963;26.018;-80.216;2022-08-30T14:39:51;12.82;;;2.38;;
30151;SDS011;16963;26.018;-80.216;2022-08-30T14:42:18;15.38;;;3.80;;
30151;SDS011;16963;26.018;-80.216;2022-08-30T14:45:14;10.05;;;2.60;;
30151;SDS011;16963;26.018;-80.216;2022-08-30T14:49:48;14.93;;;3.08;;
30151;SDS011;16963;26.018;-80.216;2022-08-30T14:52:17;12.25;;;2.70;;
30151;SDS011;16963;26.018;-80.216;2022-08-30T14:54:51;13.32;;;3.08;;
30151;SDS011;16963;26.018;-80.216;2022-08-30T14:57:24;12.93;;;3.35;;
30151;SDS011;16963;26.018;-80.216;2022-08-30T14:59:51;11.60;;;3.08;;
30151;SDS011;16963;26.018;-80.216;2022-08-30T15:02:19;11.10;;;2.72;;
30151;SDS011;16963;26.018;-80.216;2022-08-30T15:04:52;12.38;;;3.58;;
30151;SDS011;16963;26.018;-80.216;2022-08-30T15:07:20;14.52;;;3.30;;
30151;SDS011;16963;26.018;-80.216;2022-08-30T15:10:04;12.93;;;2.65;;
30151;SDS011;16963;26.018;-80.216;2022-08-30T15:12:31;11.10;;;2.60;;
30151;SDS011;16963;26.018;-80.216;2022-08-30T15:15:12;10.13;;;2.88;;
30151;SDS011;16963;26.018;-80.216;2022-08-30T15:17:41;10.68;;;2.83;;
30151;SDS011;16963;26.018;-80.216;2022-08-30T15:20:11;10.95;;;2.58;;
30151;SDS011;16963;26.018;-80.216;2022-08-30T15:22:41;12.50;;;3.00;;
30151;SDS011;16963;26.018;-80.216;2022-08-30T15:25:12;9.43;;;2.60;;
30151;SDS011;16963;26.018;-80.216;2022-08-30T15:27:41;11.15;;;2.95;;
30151;SDS011;16963;26.018;-80.216;2022-08-30T15:30:09;11.50;;;2.67;;
30151;SDS011;16963;26.018;-80.216;2022-08-30T15:32:41;13.38;;;2.88;;
30151;SDS011;16963;26.018;-80.216;2022-08-30T15:36:54;12.45;;;2.95;;
30151;SDS011;16963;26.018;-80.216;2022-08-30T15:39:22;13.80;;;2.95;;
30151;SDS011;16963;26.018;-80.216;2022-08-30T15:41:56;10.48;;;2.60;;
30151;SDS011;16963;26.018;-80.216;2022-08-30T15:44:28;15.32;;;3.53;;
30151;SDS011;16963;26.018;-80.216;2022-08-30T15:47:03;9.85;;;2.78;;
30151;SDS011;16963;26.018;-80.216;2022-08-30T15:49:31;10.40;;;2.17;;
30151;SDS011;16963;26.018;-80.216;2022-08-30T15:51:59;11.48;;;3.00;;
30151;SDS011;16963;26.018;-80.216;2022-08-30T15:54:34;12.93;;;2.80;;
30151;SDS011;16963;26.018;-80.216;2022-08-30T15:57:12;10.10;;;2.90;;
30151;SDS011;16963;26.018;-80.216;2022-08-30T15:59:41;14.67;;;3.60;;
30151;SDS011;16963;26.018;-80.216;2022-08-30T16:02:09;13.15;;;3.10;;
30151;SDS011;16963;26.018;-80.216;2022-08-30T16:04:38;14.73;;;2.40;;
30151;SDS011;16963;26.018;-80.216;2022-08-30T16:07:07;11.25;;;2.83;;
30151;SDS011;16963;26.018;-80.216;2022-08-30T16:09:37;12.68;;;2.50;;
30151;SDS011;16963;26.018;-80.216;2022-08-30T16:12:07;12.18;;;3.05;;
30151;SDS011;16963;26.018;-80.216;2022-08-30T16:14:37;14.82;;;2.83;;
30151;SDS011;16963;26.018;-80.216;2022-08-30T16:19:24;12.02;;;2.50;;
30151;SDS011;16963;26.018;-80.216;2022-08-30T16:21:52;12.70;;;2.78;;
30151;SDS011;16963;26.018;-80.216;2022-08-30T16:24:21;12.93;;;2.67;;
30151;SDS011;16963;26.018;-80.216;2022-08-30T16:26:51;9.27;;;2.47;;
30151;SDS011;16963;26.018;-80.216;2022-08-30T16:29:19;10.03;;;2.67;;
30151;SDS011;16963;26.018;-80.216;2022-08-30T16:31:48;11.40;;;2.75;;
30151;SDS011;16963;26.018;-80.216;2022-08-30T16:34:18;8.32;;;2.05;;
30151;SDS011;16963;26.018;-80.216;2022-08-30T16:36:48;10.77;;;2.55;;
30151;SDS011;16963;26.018;-80.216;2022-08-30T16:39:32;12.07;;;2.47;;
30151;SDS011;16963;26.018;-80.216;2022-08-30T16:41:59;7.32;;;2.00;;
30151;SDS011;16963;26.018;-80.216;2022-08-30T16:44:32;9.63;;;2.30;;
30151;SDS011;16963;26.018;-80.216;2022-08-30T16:47:01;9.85;;;2.65;;
30151;SDS011;16963;26.018;-80.216;2022-08-30T16:49:29;11.63;;;3.63;;
30151;SDS011;16963;26.018;-80.216;2022-08-30T16:51:59;9.52;;;3.00;;
30151;SDS011;16963;26.018;-80.216;2022-08-30T16:54:29;10.68;;;2.28;;
30151;SDS011;16963;26.018;-80.216;2022-08-30T17:01:43;9.88;;;2.35;;
30151;SDS011;16963;26.018;-80.216;2022-08-30T17:04:12;9.02;;;1.98;;
30151;SDS011;16963;26.018;-80.216;2022-08-30T17:06:47;9.10;;;2.10;;
30151;SDS011;16963;26.018;-80.216;2022-08-30T17:09:18;8.40;;;2.00;;
30151;SDS011;16963;26.018;-80.216;2022-08-30T17:11:48;9.55;;;2.30;;
30151;SDS011;16963;26.018;-80.216;2022-08-30T17:14:17;10.23;;;2.58;;